Time;durP1;ratioP1;P1;durP2;ratioP2;P2;SDS_P1;SDS_P2;PMS_P1;PMS_P2;Temp;Humidity;BMP_temperature;BMP_pressure;BME280_temperature;BME280_humidity;BME280_pressure;Samples;Min_cycle;Max_cycle;Signal;HPM_P1;HPM_P2
2022/05/01 00:00:23;;;;;;;16.35;10.90;;;;;;;8.84;95.66;102363.44;6335905;22;20056;-77
2022/05/01 00:02:48;;;;;;;14.10;10.50;;;;;;;8.88;95.98;102362.13;6331548;22;20014;-76
2022/05/01 00:05:13;;;;;;;15.02;10.75;;;;;;;8.91;96.39;102361.78;6336723;22;20052;-76
2022/05/01 00:11:01;;;;;;;14.63;10.25;;;;;;;8.88;96.74;102362.13;6336500;22;20466;-77
2022/05/01 00:13:27;;;;;;;13.98;10.20;;;;;;;8.82;96.83;102354.78;6328489;22;20010;-77
2022/05/01 00:15:53;;;;;;;15.82;10.73;;;;;;;8.80;97.38;102359.44;6336626;22;20003;-76
2022/05/01 00:18:19;;;;;;;14.48;11.05;;;;;;;8.80;97.04;102361.28;6332313;22;20009;-76
2022/05/01 00:20:47;;;;;;;13.63;11.00;;;;;;;8.77;98.32;102357.13;6334170;22;20015;-76
2022/05/01 00:23:13;;;;;;;14.50;10.95;;;;;;;8.65;98.33;102350.41;6308870;22;20060;-77
2022/05/01 00:25:42;;;;;;;14.90;10.70;;;;;;;8.63;99.37;102360.41;6329489;22;20011;-76
2022/05/01 00:28:08;;;;;;;13.88;9.40;;;;;;;8.62;99.17;102364.06;6336305;22;20006;-77
2022/05/01 00:30:34;;;;;;;16.98;10.88;;;;;;;8.60;99.26;102348.25;6329671;22;20546;-76
2022/05/01 00:38:27;;;;;;;13.20;10.02;;;;;;;8.76;98.18;102355.44;6330470;22;20101;-76
2022/05/01 00:40:52;;;;;;;15.70;11.17;;;;;;;8.74;98.71;102359.28;6334872;22;20416;-77
2022/05/01 00:43:17;;;;;;;15.82;10.82;;;;;;;8.62;98.65;102346.25;6329607;22;20249;-77
2022/05/01 00:45:42;;;;;;;14.73;10.68;;;;;;;8.64;98.75;102359.41;6336570;22;20315;-76
2022/05/01 00:48:08;;;;;;;15.95;10.68;;;;;;;8.66;98.14;102352.91;6329567;22;20100;-76
2022/05/01 00:50:34;;;;;;;15.95;10.32;;;;;;;8.68;98.92;102348.28;6336240;22;20090;-76
2022/05/01 00:53:04;;;;;;;15.90;11.07;;;;;;;8.61;98.50;102346.41;6308972;22;20011;-77
2022/05/01 00:55:31;;;;;;;16.02;10.80;;;;;;;8.58;98.89;102339.56;6302020;22;20011;-76
2022/05/01 00:57:56;;;;;;;17.55;11.07;;;;;;;8.58;99.17;102352.91;6336335;22;20064;-76
2022/05/01 01:00:21;;;;;;;14.15;10.20;;;;;;;8.51;99.32;102332.41;6328157;22;20003;-76
2022/05/01 01:02:47;;;;;;;14.82;10.55;;;;;;;8.48;99.91;102344.22;6336583;22;20007;-77
2022/05/01 01:05:13;;;;;;;14.32;11.48;;;;;;;8.50;100.00;102342.22;6336914;22;20013;-76
2022/05/01 01:07:38;;;;;;;17.10;11.65;;;;;;;8.46;100.00;102332.06;6302064;22;20044;-76
2022/05/01 01:10:05;;;;;;;15.52;10.65;;;;;;;8.47;100.00;102333.72;6336108;22;20003;-77
2022/05/01 01:15:14;;;;;;;15.50;10.20;;;;;;;8.56;98.19;102341.56;6336354;22;20018;-76
2022/05/01 01:17:41;;;;;;;13.88;10.32;;;;;;;8.54;98.14;102326.75;6301757;22;20011;-76
2022/05/01 01:20:17;;;;;;;15.85;11.13;;;;;;;8.57;98.42;102332.56;6334535;22;20059;-77
2022/05/01 01:22:47;;;;;;;16.05;10.50;;;;;;;8.59;99.79;102338.56;6308475;22;20045;-77
2022/05/01 01:25:13;;;;;;;13.77;9.88;;;;;;;8.57;99.85;102347.75;6301994;22;20029;-77
2022/05/01 01:27:39;;;;;;;16.33;10.98;;;;;;;8.58;99.95;102336.06;6336151;22;20087;-76
2022/05/01 01:32:50;;;;;;;16.77;10.60;;;;;;;8.48;99.89;102335.41;6336173;22;20097;-76
2022/05/01 01:35:19;;;;;;;14.63;10.60;;;;;;;8.40;99.96;102330.06;6330424;22;20014;-77
2022/05/01 01:37:45;;;;;;;16.27;10.80;;;;;;;8.43;100.00;102335.06;6308116;22;20010;-77
2022/05/01 01:40:16;;;;;;;16.30;10.82;;;;;;;8.40;100.00;102332.72;6336936;22;20007;-76
2022/05/01 01:42:42;;;;;;;15.75;11.35;;;;;;;8.32;100.00;102333.47;6330582;22;20104;-76
2022/05/01 01:45:08;;;;;;;14.25;11.05;;;;;;;8.30;100.00;102333.66;6337359;22;20002;-76
2022/05/01 01:47:33;;;;;;;15.20;11.23;;;;;;;8.18;99.96;102321.63;6302973;22;20072;-77
2022/05/01 01:49:59;;;;;;;16.53;11.50;;;;;;;8.20;100.00;102330.28;6337470;22;20013;-76
2022/05/01 01:52:24;;;;;;;14.88;10.48;;;;;;;8.22;100.00;102333.63;6337312;22;20566;-76
2022/05/01 01:54:51;;;;;;;17.17;11.80;;;;;;;8.17;99.92;102327.94;6330379;22;20014;-76
2022/05/01 01:57:16;;;;;;;15.68;10.90;;;;;;;8.15;100.00;102321.97;6309415;22;20247;-76
2022/05/01 01:59:42;;;;;;;16.52;12.13;;;;;;;8.11;100.00;102325.94;6330467;22;20038;-76
2022/05/01 02:05:29;;;;;;;16.38;11.55;;;;;;;8.02;100.00;102332.22;6337826;22;20018;-76
2022/05/01 02:07:54;;;;;;;16.80;11.32;;;;;;;7.96;100.00;102323.03;6337281;22;20010;-76
2022/05/01 02:10:20;;;;;;;16.15;11.70;;;;;;;7.93;100.00;102328.69;6336876;22;20076;-76
2022/05/01 02:12:45;;;;;;;16.45;11.52;;;;;;;7.88;100.00;102327.50;6330913;22;20011;-76
2022/05/01 02:15:11;;;;;;;16.60;11.07;;;;;;;7.84;100.00;102319.00;6309389;22;20086;-76
2022/05/01 02:17:38;;;;;;;14.73;11.73;;;;;;;7.78;100.00;102322.28;6330403;22;20249;-76
2022/05/01 02:20:04;;;;;;;18.27;10.95;;;;;;;7.81;100.00;102329.97;6309480;22;20086;-76
2022/05/01 02:22:29;;;;;;;17.38;12.27;;;;;;;7.80;100.00;102324.78;6304213;22;20096;-76
2022/05/01 02:24:54;;;;;;;18.40;11.50;;;;;;;7.80;100.00;102317.63;6335616;22;20018;-76
2022/05/01 02:27:20;;;;;;;16.85;11.80;;;;;;;7.77;100.00;102318.78;6337119;22;20248;-76
2022/05/01 02:29:45;;;;;;;19.33;12.10;;;;;;;7.73;100.00;102316.59;6303051;22;20015;-76
2022/05/01 02:32:10;;;;;;;16.92;12.35;;;;;;;7.78;100.00;102316.97;6309415;22;20011;-76
2022/05/01 02:34:36;;;;;;;16.50;11.70;;;;;;;7.65;100.00;102292.59;6330213;22;20434;-76
2022/05/01 02:37:01;;;;;;;20.27;13.45;;;;;;;7.73;100.00;102304.13;6337189;22;19999;-76
2022/05/01 02:39:26;;;;;;;17.13;12.23;;;;;;;7.71;100.00;102298.13;6336942;22;20006;-76
2022/05/01 02:41:51;;;;;;;16.73;11.65;;;;;;;7.68;100.00;102306.44;6330413;22;20014;-76
2022/05/01 02:44:17;;;;;;;16.70;11.93;;;;;;;7.69;100.00;102301.94;6337018;22;20003;-76
2022/05/01 02:46:42;;;;;;;17.20;11.27;;;;;;;7.64;100.00;102302.44;6330172;22;20007;-77
2022/05/01 02:52:29;;;;;;;16.55;12.15;;;;;;;7.68;100.00;102294.94;6336302;22;20026;-76
2022/05/01 02:54:54;;;;;;;17.33;11.88;;;;;;;7.62;100.00;102299.09;6337083;22;20102;-76
2022/05/01 02:57:20;;;;;;;20.25;12.25;;;;;;;7.59;100.00;102299.41;6336970;22;20434;-76
2022/05/01 02:59:47;;;;;;;19.27;11.85;;;;;;;7.55;100.00;102298.06;6302907;22;20127;-76
2022/05/01 03:02:13;;;;;;;19.48;12.30;;;;;;;7.54;100.00;102295.56;6336950;22;20010;-76
2022/05/01 03:04:38;;;;;;;18.23;11.75;;;;;;;7.52;100.00;102298.38;6330080;22;20060;-76
2022/05/01 03:07:04;;;;;;;18.20;12.05;;;;;;;7.53;100.00;102296.56;6336941;22;20007;-76
2022/05/01 03:09:30;;;;;;;15.43;11.45;;;;;;;7.55;100.00;102291.91;6334529;22;20006;-76
2022/05/01 03:11:55;;;;;;;17.75;12.13;;;;;;;7.57;100.00;102297.91;6332434;22;20011;-76
2022/05/01 03:14:20;;;;;;;16.45;12.50;;;;;;;7.57;100.00;102295.25;6309333;22;20491;-76
2022/05/01 03:16:46;;;;;;;18.25;12.18;;;;;;;7.57;100.00;102292.56;6302788;22;20018;-77
2022/05/01 03:24:42;;;;;;;18.65;12.65;;;;;;;7.53;100.00;102289.41;6336883;22;20022;-76
2022/05/01 03:27:09;;;;;;;18.58;12.55;;;;;;;7.52;100.00;102295.72;6336380;22;20010;-76
2022/05/01 03:29:34;;;;;;;17.73;12.48;;;;;;;7.48;100.00;102283.69;6331018;22;20039;-76
2022/05/01 03:32:01;;;;;;;18.60;12.23;;;;;;;7.45;100.00;102289.34;6336666;22;20056;-76
2022/05/01 03:34:27;;;;;;;18.42;12.00;;;;;;;7.40;100.00;102284.50;6329996;22;20011;-76
2022/05/01 03:36:53;;;;;;;19.02;12.55;;;;;;;7.40;100.00;102287.16;6336904;22;20014;-76
2022/05/01 03:39:20;;;;;;;19.52;12.68;;;;;;;7.35;100.00;102281.47;6303562;22;20019;-76
2022/05/01 03:41:45;;;;;;;19.38;13.05;;;;;;;7.35;100.00;102280.63;6335757;22;20067;-76
2022/05/01 03:44:11;;;;;;;19.27;12.30;;;;;;;7.25;100.00;102275.44;6336696;22;20011;-76
2022/05/01 03:46:38;;;;;;;19.00;13.60;;;;;;;7.24;100.00;102272.94;6329723;22;20442;-76
2022/05/01 03:49:04;;;;;;;17.50;12.57;;;;;;;7.15;100.00;102278.19;6336674;22;20129;-76
2022/05/01 03:51:31;;;;;;;18.23;12.70;;;;;;;7.11;100.00;102279.47;6302439;22;20046;-76
2022/05/01 03:53:58;;;;;;;19.92;13.27;;;;;;;7.01;100.00;102267.28;6336768;22;20018;-76
2022/05/01 03:56:25;;;;;;;17.23;12.40;;;;;;;6.98;100.00;102276.41;6336452;22;19999;-76
2022/05/01 03:58:50;;;;;;;17.92;12.65;;;;;;;6.96;100.00;102273.06;6329741;22;20082;-76
2022/05/01 04:01:15;;;;;;;19.08;13.38;;;;;;;6.92;100.00;102279.66;6308918;22;20045;-76
2022/05/01 04:03:40;;;;;;;18.42;12.75;;;;;;;6.87;100.00;102271.31;6301986;22;20431;-76
2022/05/01 04:06:06;;;;;;;18.95;13.02;;;;;;;6.87;100.00;102279.28;6308961;22;20007;-76
2022/05/01 04:08:31;;;;;;;19.93;13.37;;;;;;;6.79;100.00;102271.25;6334937;22;20423;-76
2022/05/01 04:10:56;;;;;;;19.33;13.70;;;;;;;6.69;100.00;102273.19;6302363;22;20261;-76
2022/05/01 04:13:22;;;;;;;20.92;13.50;;;;;;;6.63;100.00;102276.44;6308897;22;20038;-76
2022/05/01 04:15:47;;;;;;;20.60;13.68;;;;;;;6.48;100.00;102276.97;6329500;22;20077;-76
2022/05/01 04:18:12;;;;;;;21.55;13.52;;;;;;;6.47;100.00;102283.28;6336610;22;19998;-76
2022/05/01 04:20:38;;;;;;;19.97;12.67;;;;;;;6.46;100.00;102278.97;6332946;22;20080;-76
2022/05/01 04:23:06;;;;;;;19.40;13.38;;;;;;;6.41;100.00;102278.56;6333512;22;20306;-76
2022/05/01 04:25:33;;;;;;;21.13;14.25;;;;;;;6.37;100.00;102276.38;6336387;22;20276;-76
2022/05/01 04:28:10;;;;;;;24.33;13.77;;;;;;;6.36;100.00;102272.88;6329752;22;20007;-76
2022/05/01 04:30:37;;;;;;;19.20;12.82;;;;;;;6.31;100.00;102272.47;6336445;22;20085;-76
2022/05/01 04:33:14;;;;;;;21.70;13.70;;;;;;;6.31;100.00;102274.31;6329606;22;20018;-76
2022/05/01 04:35:43;;;;;;;19.48;13.55;;;;;;;6.25;100.00;102274.91;6308932;22;20503;-76
2022/05/01 04:38:11;;;;;;;21.70;14.02;;;;;;;6.25;100.00;102274.91;6336414;22;20014;-76
2022/05/01 04:40:58;;;;;;;23.35;13.63;;;;;;;6.29;100.00;102282.41;6324371;22;20573;-76
2022/05/01 04:43:25;;;;;;;24.13;14.15;;;;;;;6.31;100.00;102269.81;6336546;22;20011;-76
2022/05/01 04:45:52;;;;;;;23.63;14.70;;;;;;;6.39;100.00;102283.22;6329692;22;20089;-76
2022/05/01 04:48:19;;;;;;;21.38;14.13;;;;;;;6.46;100.00;102278.13;6308633;22;20108;-76
2022/05/01 04:50:46;;;;;;;20.90;14.35;;;;;;;6.50;100.00;102282.13;6329429;22;20035;-76
2022/05/01 04:53:13;;;;;;;20.98;14.50;;;;;;;6.51;100.00;102279.34;6308707;22;20340;-76
2022/05/01 04:55:39;;;;;;;23.50;14.75;;;;;;;6.58;100.00;102278.72;6336335;22;20010;-76
2022/05/01 04:58:05;;;;;;;22.33;14.77;;;;;;;6.63;100.00;102276.44;6329387;22;20010;-76
2022/05/01 05:03:52;;;;;;;23.88;16.08;;;;;;;6.78;100.00;102283.72;6336641;22;20015;-76
2022/05/01 05:06:17;;;;;;;24.63;15.83;;;;;;;6.84;100.00;102288.41;6308610;22;20456;-77
2022/05/01 05:11:26;;;;;;;23.75;15.88;;;;;;;7.03;100.00;102290.06;6336204;22;20018;-77
2022/05/01 05:13:52;;;;;;;26.67;16.35;;;;;;;7.05;100.00;102287.25;6332338;22;20002;-76
2022/05/01 05:16:18;;;;;;;29.00;17.17;;;;;;;7.10;100.00;102293.78;6332953;22;20006;-76
2022/05/01 05:18:44;;;;;;;26.70;15.93;;;;;;;7.10;100.00;102295.59;6336158;22;20007;-76
2022/05/01 05:21:09;;;;;;;25.13;16.48;;;;;;;7.07;100.00;102288.78;6329166;22;20013;-76
2022/05/01 05:23:34;;;;;;;24.55;16.38;;;;;;;7.01;100.00;102289.41;6336138;22;20378;-76
2022/05/01 05:26:00;;;;;;;28.20;18.02;;;;;;;7.05;100.00;102296.06;6329208;22;20115;-76
2022/05/01 05:28:25;;;;;;;28.17;17.33;;;;;;;7.11;100.00;102299.94;6336151;22;20087;-76
2022/05/01 05:30:50;;;;;;;28.58;17.55;;;;;;;7.21;100.00;102291.84;6335939;22;20007;-76
2022/05/01 05:33:16;;;;;;;30.02;18.00;;;;;;;7.31;100.00;102301.41;6329086;22;20078;-77
2022/05/01 05:35:42;;;;;;;29.25;17.58;;;;;;;7.39;100.00;102308.59;6335924;22;20003;-76
2022/05/01 05:38:07;;;;;;;27.98;17.25;;;;;;;7.55;100.00;102322.00;6301753;22;20067;-76
2022/05/01 05:40:32;;;;;;;29.40;18.42;;;;;;;7.61;100.00;102315.22;6308360;22;20339;-76
2022/05/01 05:42:57;;;;;;;27.38;18.67;;;;;;;7.65;100.00;102309.41;6336078;22;20010;-76
2022/05/01 05:45:23;;;;;;;31.25;17.65;;;;;;;7.80;100.00;102320.28;6301707;22;20431;-76
2022/05/01 05:47:48;;;;;;;30.40;18.58;;;;;;;7.87;100.00;102313.34;6308182;22;20061;-76
2022/05/01 05:50:14;;;;;;;32.00;18.77;;;;;;;8.00;100.00;102315.56;6301546;22;20041;-76
2022/05/01 05:52:39;;;;;;;31.88;18.92;;;;;;;8.07;100.00;102320.06;6335791;22;20010;-76
2022/05/01 05:58:26;;;;;;;31.42;18.88;;;;;;;8.38;100.00;102316.88;6335729;22;20018;-76
2022/05/01 06:00:51;;;;;;;31.95;19.40;;;;;;;8.56;100.00;102319.41;6335833;22;20014;-76
2022/05/01 06:03:19;;;;;;;30.23;18.73;;;;;;;8.74;100.00;102319.28;6328941;22;20019;-76
2022/05/01 06:05:44;;;;;;;28.35;18.80;;;;;;;8.93;99.65;102322.44;6335889;22;20013;-77
2022/05/01 06:08:10;;;;;;;30.35;19.83;;;;;;;9.11;99.26;102321.44;6328891;22;20034;-76
2022/05/01 06:10:35;;;;;;;31.67;19.40;;;;;;;9.26;98.42;102322.44;6334001;22;20472;-76
2022/05/01 06:13:00;;;;;;;31.70;20.40;;;;;;;9.38;97.59;102321.09;6331845;22;20096;-77
2022/05/01 06:15:25;;;;;;;31.85;19.10;;;;;;;9.48;97.04;102335.06;6332525;22;20236;-76
2022/05/01 06:17:51;;;;;;;32.80;20.20;;;;;;;9.52;96.35;102323.03;6335745;22;20128;-76
2022/05/01 06:20:18;;;;;;;32.75;20.77;;;;;;;9.66;95.74;102340.22;6328769;22;20339;-76
2022/05/01 06:22:43;;;;;;;30.30;18.98;;;;;;;9.67;94.89;102322.34;6308036;22;20010;-76
2022/05/01 06:25:09;;;;;;;31.55;20.00;;;;;;;9.76;96.11;102329.31;6328615;22;20011;-76
2022/05/01 06:27:35;;;;;;;32.38;19.35;;;;;;;9.83;95.39;102339.16;6336917;22;20078;-76
2022/05/01 06:33:23;;;;;;;34.38;20.67;;;;;;;10.45;93.38;102333.91;6337201;22;20068;-76
2022/05/01 06:35:50;;;;;;;29.00;19.13;;;;;;;10.66;92.33;102324.38;6337019;22;20481;-76
2022/05/01 06:38:16;;;;;;;28.55;19.05;;;;;;;10.93;91.23;102331.03;6330178;22;20011;-76
2022/05/01 06:40:46;;;;;;;34.70;20.48;;;;;;;11.16;90.25;102337.22;6337104;22;20439;-76
2022/05/01 06:43:12;;;;;;;33.05;20.60;;;;;;;11.32;88.74;102333.56;6329973;22;20038;-76
2022/05/01 06:45:38;;;;;;;27.77;19.58;;;;;;;11.41;87.69;102330.59;6309323;22;20447;-76
2022/05/01 06:48:03;;;;;;;31.88;19.48;;;;;;;11.39;86.26;102324.59;6336929;22;20007;-77
2022/05/01 06:50:30;;;;;;;34.22;21.08;;;;;;;11.53;86.98;102336.34;6330117;22;20007;-76
2022/05/01 06:52:56;;;;;;;33.65;19.67;;;;;;;11.70;86.54;102339.69;6309347;22;20097;-77
2022/05/01 06:55:25;;;;;;;32.85;20.88;;;;;;;11.85;85.85;102343.22;6302852;22;20030;-76
2022/05/01 06:57:51;;;;;;;31.38;20.02;;;;;;;11.89;83.46;102336.50;6336832;22;20010;-77
2022/05/01 07:00:17;;;;;;;31.83;19.02;;;;;;;12.08;83.04;102346.63;6305242;22;20025;-77
2022/05/01 07:02:50;;;;;;;32.10;19.08;;;;;;;12.23;82.64;102337.75;6334246;22;20081;-77
2022/05/01 07:05:17;;;;;;;30.58;19.65;;;;;;;12.38;81.20;102334.00;6309159;22;20013;-76
2022/05/01 07:07:42;;;;;;;35.83;19.95;;;;;;;12.48;80.48;102340.91;6302762;22;20451;-77
2022/05/01 07:10:08;;;;;;;31.67;19.55;;;;;;;12.59;79.85;102335.03;6309218;22;20343;-77
2022/05/01 07:12:34;;;;;;;34.70;20.98;;;;;;;12.69;80.31;102328.34;6330009;22;20039;-76
2022/05/01 07:15:00;;;;;;;34.47;20.10;;;;;;;12.79;79.40;102332.56;6336915;22;20003;-77
2022/05/01 07:17:25;;;;;;;34.15;21.50;;;;;;;12.92;78.99;102328.16;6309043;22;20427;-77
2022/05/01 07:19:51;;;;;;;36.35;21.55;;;;;;;13.20;78.99;102327.38;6330067;22;20017;-77
2022/05/01 07:22:17;;;;;;;32.65;19.48;;;;;;;13.43;76.40;102343.25;6309071;22;20007;-76
2022/05/01 07:24:42;;;;;;;37.80;21.23;;;;;;;13.45;76.73;102341.22;6329989;22;20388;-77
2022/05/01 07:27:08;;;;;;;37.88;20.95;;;;;;;13.59;77.01;102338.44;6308978;22;20014;-76
2022/05/01 07:29:33;;;;;;;35.25;19.98;;;;;;;13.67;75.13;102332.06;6336728;22;20064;-77
2022/05/01 07:31:58;;;;;;;34.33;20.17;;;;;;;13.82;75.00;102337.28;6329862;22;20007;-76
2022/05/01 07:34:23;;;;;;;32.43;20.20;;;;;;;13.92;73.70;102340.47;6336689;22;20237;-77
2022/05/01 07:36:49;;;;;;;30.92;19.63;;;;;;;13.99;72.84;102335.13;6329947;22;20295;-76
2022/05/01 07:39:14;;;;;;;32.53;19.10;;;;;;;13.98;71.71;102339.66;6308639;22;20410;-76
2022/05/01 07:41:40;;;;;;;35.17;21.98;;;;;;;13.95;71.79;102337.38;6333601;22;20236;-77
2022/05/01 07:44:05;;;;;;;32.88;19.88;;;;;;;13.91;72.27;102336.13;6333119;22;20014;-77
2022/05/01 07:46:31;;;;;;;33.67;20.02;;;;;;;13.93;73.13;102340.28;6336654;22;20332;-77
2022/05/01 07:48:56;;;;;;;30.70;19.30;;;;;;;13.94;72.74;102333.03;6302547;22;20351;-76
2022/05/01 07:54:43;;;;;;;30.98;19.17;;;;;;;14.10;70.18;102342.59;6336733;22;20021;-77
2022/05/01 07:57:08;;;;;;;30.27;19.02;;;;;;;14.25;70.28;102337.91;6336799;22;20081;-77
2022/05/01 07:59:34;;;;;;;35.33;19.63;;;;;;;14.53;67.52;102341.34;6329894;22;20023;-77
2022/05/01 08:01:59;;;;;;;33.15;19.65;;;;;;;15.25;65.60;102341.63;6336594;22;20006;-77
2022/05/01 08:04:28;;;;;;;27.08;18.42;;;;;;;16.41;62.94;102335.28;6336777;22;20454;-77
2022/05/01 08:06:54;;;;;;;26.30;16.05;;;;;;;17.16;57.16;102337.31;6302589;22;20007;-77
2022/05/01 08:09:19;;;;;;;26.70;16.75;;;;;;;17.80;55.72;102325.25;6336628;22;20002;-77
2022/05/01 08:11:45;;;;;;;26.33;16.73;;;;;;;18.84;51.47;102338.47;6329723;22;20285;-77
2022/05/01 08:14:12;;;;;;;34.75;17.92;;;;;;;19.78;49.69;102338.53;6336606;22;20265;-77
2022/05/01 08:16:41;;;;;;;26.48;15.48;;;;;;;21.02;46.25;102339.56;6336596;22;20378;-77
2022/05/01 08:21:51;;;;;;;23.48;15.05;;;;;;;23.98;37.79;102340.78;6336694;22;20072;-77
2022/05/01 08:24:16;;;;;;;21.63;14.77;;;;;;;24.74;34.88;102341.00;6329946;22;20006;-78
2022/05/01 08:26:46;;;;;;;25.65;14.93;;;;;;;25.22;33.61;102333.34;6336659;22;20098;-77
2022/05/01 08:29:12;;;;;;;20.38;14.13;;;;;;;25.96;32.56;102340.81;6329729;22;20440;-77
2022/05/01 08:31:38;;;;;;;21.88;14.45;;;;;;;26.77;30.81;102334.88;6336431;22;20082;-78
2022/05/01 08:34:03;;;;;;;22.33;12.50;;;;;;;27.34;30.09;102333.28;6308931;22;20492;-78
2022/05/01 08:36:29;;;;;;;16.73;11.83;;;;;;;28.11;27.70;102335.16;6302350;22;20018;-77
2022/05/01 08:38:54;;;;;;;18.77;12.32;;;;;;;29.08;26.38;102334.50;6336513;22;20065;-78
2022/05/01 08:41:20;;;;;;;14.30;10.30;;;;;;;29.73;25.35;102340.69;6329705;22;20006;-77
2022/05/01 08:43:46;;;;;;;14.40;10.20;;;;;;;29.92;23.66;102332.31;6336419;22;20317;-78
2022/05/01 08:46:26;;;;;;;15.63;10.37;;;;;;;30.18;25.77;102332.59;6334994;22;20379;-78
2022/05/01 08:49:05;;;;;;;15.55;10.52;;;;;;;30.40;25.39;102329.06;6329564;22;20248;-78
2022/05/01 08:51:32;;;;;;;17.08;11.10;;;;;;;30.72;22.70;102328.03;6308768;22;20003;-78
2022/05/01 08:53:59;;;;;;;15.30;10.65;;;;;;;30.50;22.69;102332.41;6329427;22;20109;-78
2022/05/01 08:59:47;;;;;;;15.93;9.05;;;;;;;29.45;22.65;102320.59;6336615;22;20084;-78
2022/05/01 09:02:13;;;;;;;18.10;10.70;;;;;;;29.80;23.28;102319.06;6336364;22;20013;-77
2022/05/01 09:04:39;;;;;;;12.43;9.23;;;;;;;29.80;22.39;102315.50;6329451;22;20038;-78
2022/05/01 09:07:04;;;;;;;12.73;8.48;;;;;;;30.30;21.61;102313.53;6336334;22;20379;-77
2022/05/01 09:09:30;;;;;;;12.18;9.00;;;;;;;30.73;20.01;102326.91;6308621;22;20018;-78
2022/05/01 09:14:41;;;;;;;9.30;7.30;;;;;;;30.29;20.42;102324.91;6336331;22;20072;-78
2022/05/01 09:17:12;;;;;;;12.57;7.82;;;;;;;29.17;20.93;102322.47;6301888;22;20010;-78
2022/05/01 09:19:38;;;;;;;9.33;7.07;;;;;;;27.86;22.51;102323.38;6336259;22;20450;-78
2022/05/01 09:22:03;;;;;;;8.93;6.70;;;;;;;26.99;22.48;102317.16;6333161;22;20042;-77
2022/05/01 09:24:30;;;;;;;9.68;7.68;;;;;;;26.93;22.19;102316.34;6332602;22;20060;-78
2022/05/01 09:26:57;;;;;;;9.32;7.10;;;;;;;26.92;22.71;102324.88;6308583;22;20010;-78
2022/05/01 09:29:23;;;;;;;11.95;7.68;;;;;;;27.81;20.42;102320.69;6329322;22;20010;-78
2022/05/01 09:31:55;;;;;;;9.18;7.32;;;;;;;28.37;20.10;102323.53;6336474;22;20108;-78
2022/05/01 09:34:29;;;;;;;12.93;7.75;;;;;;;28.80;21.19;102325.31;6303202;22;20356;-78
2022/05/01 09:36:56;;;;;;;10.55;8.13;;;;;;;28.62;20.78;102316.81;6308474;22;20010;-78
2022/05/01 09:39:23;;;;;;;10.88;7.20;;;;;;;28.90;20.73;102327.91;6335879;22;20014;-78
2022/05/01 09:41:50;;;;;;;10.43;7.60;;;;;;;28.93;20.87;102324.56;6329211;22;20026;-78
2022/05/01 09:44:17;;;;;;;9.30;7.68;;;;;;;27.64;21.21;102312.91;6336003;22;20415;-78
2022/05/01 09:46:44;;;;;;;12.02;8.10;;;;;;;26.35;22.67;102313.50;6329065;22;20082;-78
2022/05/01 09:49:14;;;;;;;11.27;8.07;;;;;;;24.68;24.55;102315.56;6336020;22;20093;-78
2022/05/01 09:51:43;;;;;;;9.80;7.60;;;;;;;23.51;26.17;102311.59;6305348;22;20014;-78
2022/05/01 09:54:16;;;;;;;10.85;7.75;;;;;;;22.89;27.10;102314.16;6332891;22;20072;-78
2022/05/01 09:56:58;;;;;;;11.50;7.85;;;;;;;22.84;26.82;102315.78;6335952;22;20003;-78
2022/05/01 09:59:25;;;;;;;9.88;7.65;;;;;;;22.65;27.09;102319.94;6329014;22;20003;-77
2022/05/01 10:02:05;;;;;;;9.45;7.30;;;;;;;22.37;28.69;102312.84;6336560;22;20447;-78
2022/05/01 10:04:35;;;;;;;8.57;6.93;;;;;;;22.02;28.58;102312.41;6330408;22;20014;-78
2022/05/01 10:07:02;;;;;;;13.43;7.68;;;;;;;21.87;28.42;102313.03;6337237;22;19999;-77
2022/05/01 10:12:49;;;;;;;13.48;8.18;;;;;;;21.65;28.90;102313.03;6337390;22;20095;-77
2022/05/01 10:15:16;;;;;;;9.80;7.38;;;;;;;21.64;28.01;102301.31;6333105;22;20006;-77
2022/05/01 10:17:42;;;;;;;10.85;7.78;;;;;;;21.37;29.96;102297.66;6334954;22;20384;-77
2022/05/01 10:20:08;;;;;;;10.40;8.32;;;;;;;21.38;29.06;102310.19;6337144;22;20007;-78
2022/05/01 10:22:35;;;;;;;12.88;7.70;;;;;;;21.52;29.35;102295.19;6330309;22;20016;-78
2022/05/01 10:25:03;;;;;;;12.43;7.95;;;;;;;22.21;28.04;102298.22;6337142;22;20031;-77
2022/05/01 10:28:00;;;;;;;9.70;7.05;;;;;;;23.04;28.00;102301.44;6330196;22;20027;-77
2022/05/01 10:33:39;;;;;;;10.15;7.18;;;;;;;23.81;26.93;102294.56;6330335;22;20117;-78
2022/05/01 10:36:37;;;;;;;11.45;7.60;;;;;;;23.69;27.14;102288.47;6337154;22;20055;-78
2022/05/01 10:39:09;;;;;;;12.45;7.80;;;;;;;23.42;27.12;102285.88;6330704;22;20015;-78
2022/05/01 10:41:38;;;;;;;10.47;8.07;;;;;;;23.58;25.68;102292.25;6337080;22;20085;-77
2022/05/01 10:44:04;;;;;;;13.80;8.07;;;;;;;23.70;25.77;102282.75;6309314;22;20003;-78
2022/05/01 10:46:31;;;;;;;10.43;8.07;;;;;;;23.43;25.94;102280.16;6302256;22;20013;-77
2022/05/01 10:49:00;;;;;;;12.05;8.02;;;;;;;23.21;25.46;102279.47;6336681;22;20084;-78
2022/05/01 10:51:36;;;;;;;15.57;7.80;;;;;;;22.74;26.69;102277.44;6302640;22;20010;-77
2022/05/01 10:54:10;;;;;;;9.88;6.90;;;;;;;22.63;27.57;102285.81;6337016;22;20010;-78
2022/05/01 11:00:06;;;;;;;9.63;7.63;;;;;;;22.43;27.20;102276.38;6337069;22;20026;-78
2022/05/01 11:02:40;;;;;;;11.02;7.32;;;;;;;22.48;26.10;102268.22;6332641;22;20007;-78
2022/05/01 11:05:08;;;;;;;11.95;7.53;;;;;;;22.49;26.67;102272.59;6336702;22;20002;-77
2022/05/01 11:07:35;;;;;;;13.13;7.53;;;;;;;22.65;26.17;102264.56;6336926;22;20002;-77
2022/05/01 11:10:01;;;;;;;10.68;7.63;;;;;;;22.55;26.69;102249.78;6302875;22;20022;-78
2022/05/01 11:12:28;;;;;;;9.05;7.00;;;;;;;22.56;25.97;102256.88;6336220;22;20424;-77
2022/05/01 11:14:59;;;;;;;11.35;7.90;;;;;;;22.59;27.06;102260.16;6329837;22;20022;-78
2022/05/01 11:17:37;;;;;;;10.88;7.85;;;;;;;22.23;27.43;102259.81;6337262;22;20424;-77
2022/05/01 11:20:23;;;;;;;11.63;8.05;;;;;;;21.72;29.74;102248.34;6308497;22;20007;-77
2022/05/01 11:22:49;;;;;;;10.98;7.55;;;;;;;21.56;29.71;102250.03;6335993;22;20038;-77
2022/05/01 11:25:18;;;;;;;10.93;7.97;;;;;;;21.39;28.98;102246.53;6336854;22;20052;-78
2022/05/01 11:27:52;;;;;;;8.68;7.30;;;;;;;21.39;29.14;102243.81;6329969;22;20018;-78
2022/05/01 11:30:26;;;;;;;11.20;8.23;;;;;;;21.28;29.55;102242.03;6336926;22;20026;-77
2022/05/01 11:33:01;;;;;;;11.45;8.68;;;;;;;21.06;30.30;102241.97;6329938;22;20491;-77
2022/05/01 11:36:01;;;;;;;10.85;7.95;;;;;;;20.90;31.16;102240.94;6309150;22;20072;-77
2022/05/01 11:38:38;;;;;;;9.85;7.82;;;;;;;20.69;31.13;102237.06;6329747;22;20019;-77
2022/05/01 11:41:04;;;;;;;11.93;8.48;;;;;;;20.29;32.55;102231.72;6336789;22;20007;-77
2022/05/01 11:43:31;;;;;;;12.00;7.80;;;;;;;19.85;32.42;102233.34;6336759;22;20003;-78
2022/05/01 11:45:58;;;;;;;10.13;8.00;;;;;;;19.80;31.60;102236.78;6302593;22;20478;-77
2022/05/01 11:48:23;;;;;;;10.38;7.85;;;;;;;19.86;32.77;102221.41;6309123;22;20090;-77
2022/05/01 11:50:51;;;;;;;9.98;7.32;;;;;;;20.00;31.77;102230.09;6329805;22;20053;-78
2022/05/01 11:53:18;;;;;;;11.95;7.60;;;;;;;20.10;31.39;102225.69;6336766;22;20003;-78
2022/05/01 12:04:29;;;;;;;12.50;7.80;;;;;;;19.52;33.88;102219.59;6326372;22;20021;-77
2022/05/01 12:07:20;;;;;;;9.38;7.38;;;;;;;19.58;33.92;102214.06;6336970;22;20007;-78
2022/05/01 12:09:47;;;;;;;12.25;7.93;;;;;;;19.54;33.40;102207.47;6329750;22;20264;-78
2022/05/01 12:12:16;;;;;;;12.27;9.05;;;;;;;19.99;32.32;102209.44;6336733;22;20011;-78
2022/05/01 12:14:43;;;;;;;13.00;8.68;;;;;;;20.64;31.83;102208.97;6329763;22;20011;-78
2022/05/01 12:17:16;;;;;;;13.15;8.43;;;;;;;21.06;31.51;102201.16;6309017;22;20007;-78
2022/05/01 12:19:44;;;;;;;10.32;8.20;;;;;;;21.58;30.97;102208.94;6330294;22;20384;-77
2022/05/01 12:22:14;;;;;;;11.30;8.35;;;;;;;22.19;28.68;102198.72;6336653;22;20007;-78
2022/05/01 12:24:41;;;;;;;10.60;8.68;;;;;;;22.77;29.28;102194.28;6308596;22;20145;-77